Flugplatz Ramstein Air Base

Bericht für ETAR

vom 31.05. um 09:56 UTC

Wind 11 kt aus 60° in Böen 17 kt

Sichtweite 10 km oder mehr

keine Wolken

Temperatur 17.4°C

Taupunkt 4.0°C

Luftfeuchtigkeit 41%

Luftdruck 1021 hPa

ETAR 310956Z AUTO 06011G17KT 9999 CLR 17/04 A3014 RMK AO2 SLP208 T01740040 FZRANO

Prognose für ETAR

vom 31.05. um 10:00 UTC

Zwischen 10:00 UTC und 17:00 UTC

Wind 12 kt aus 60° in Böen 20 kt

Sichtweite 10 km oder mehr

aufgelockert bewölkt in 5000 ft


Zwischen 17:00 und 18:00 UTC übergehend zu

Wind 10 kt aus 70° in Böen 15 kt

Sichtweite 10 km oder mehr

gering bewölkt in 5000 ft


Zwischen 22:00 und 23:00 UTC übergehend zu

variable Windrichtung mit 6 kt

Sichtweite 10 km oder mehr

gering bewölkt in 5000 ft

TAF ETAR 311000Z 3110/0116 06012G20KT 9999 SCT050 510004 QNH3012INS BECMG 3117/3118 07010G15KT 9999 FEW050 QNH3013INS BECMG 3122/3123 VRB06KT 9999 FEW050 QNH3014INS TX19/3114Z TN04/0104Z
Impressum